Historyczne dane pomiarowe

Dodano dane terminowe – wersja testowa.

Dane z okresu 1951-2019

Wersja bazy: 1.34 [2019-03-16, lista zmian], aktualizacja planowana na 2019-04-15

Dane meteo z obszaru Polski uzyskane na podstawie danych udostępnionych przez Instytut Meteorologii i Gospodarki Wodnej – Państwowy Instytut Badawczy.

 

Wybierz Datę:    

       

TemperaturaWilgotnośćWiatrCiśnienieOpadyŚniegCzas trwania zjawisk
 Stacja t tx tn tng RH VA  wxwx mslp ppp RRR   cm mm wxwxwxwxwxwxwx
1956-10-10 4.5 8.8 -2.2- 82.5- 4.3 3.0---- 0.8------------
1956-10-09 4.1 6.7 1.3- 92.8- 4.0 3.0---- 1.4------------
1956-10-08 4.0 7.6 2.3- 94.0- 4.0 1.3---- 2.2------------
1956-10-07 6.5 7.8 4.4- 91.3- 7.7 14.3---- 5.2------------
1956-10-06 6.2 8.2 1.1- 96.3- 7.3 2.7---- 48.2------------
1956-10-05 8.0 12.9 2.4- 95.0- 4.7 2.0---- 3.5------------
1956-10-04 9.1 12.8 1.0- 91.5- 8.0 3.3---- 0.8------------
1956-10-03 12.8 17.1 10.2- 92.5- 5.7 4.7---- 1.3------------
1956-10-02 16.4 24.6 7.4- 81.3- 0.3 2.7---- 1.8------------
1956-10-01 13.5 19.0 2.1- 84.3- 4.0 1.7---- 0.8------------
1956-09-30 9.6 16.8 6.5- 83.8- 0.7 4.0---- 0.0------------
1956-09-29 14.8 18.6 12.5- 73.3- 4.0 6.7---- 0.0------------
1956-09-28 14.0 19.1 7.2- 83.8- 2.7 3.7---- 0.0------------
1956-09-27 13.2 22.7 4.5- 72.5- 0.0 3.3---- 0.0------------
1956-09-26 11.8 22.0 0.0- 76.8- 0.0 1.7---- 0.0------------
1956-09-25 8.2 17.0 -1.1- 76.0- 0.0 2.3---- 0.0------------
1956-09-24 5.8 13.7 -1.0- 66.0- 0.0 3.0---- 0.0------------
1956-09-23 7.5 14.2 3.3- 70.3- 2.0 3.0---- 0.0------------
1956-09-22 11.5 18.2 3.9- 81.5- 2.3 1.3---- 0.0------------
1956-09-21 7.6 17.8 0.5- 81.3- 0.0 1.3---- 0.0------------
1956-09-20 9.0 15.8 0.4- 82.8- 2.7 1.7---- 0.0------------
1956-09-19 7.3 14.8 1.9- 85.3- 1.0 1.0---- 0.0------------
1956-09-18 7.0 13.8 2.2- 84.0- 0.7 2.3---- 0.0------------
1956-09-17 8.4 12.0 4.9- 80.3- 4.0 5.3---- 2.8------------
1956-09-16 9.9 14.1 2.8- 82.8- 7.0 6.0---- 0.9------------
1956-09-15 9.7 15.7 2.8- 83.3- 4.0 4.3---- 0.0------------
1956-09-14 8.9 15.4 5.4- 82.3- 3.0 3.7---- 0.2------------
1956-09-13 9.5 15.0 3.0- 84.0- 2.3 1.7---- 0.0------------
1956-09-12 10.3 14.6 7.1- 89.3- 5.7 4.0---- 8.0------------
1956-09-11 12.6 16.2 8.2- 92.5- 5.3 2.0---- 4.9------------
1956-09-10 13.6 17.5 7.5- 76.8- 6.0 2.3---- 0.0------------
1956-09-09 12.9 17.6 6.4- 89.3- 6.7 3.0---- 0.1------------
1956-09-08 13.6 21.5 9.4- 77.8- 1.3 1.7---- 1.2------------
1956-09-07 15.0 21.7 6.1- 83.3- 1.3 2.7---- 0.3------------
1956-09-06 13.6 20.6 4.8- 78.8- 0.3 1.3---- 0.0------------
1956-09-05 12.8 19.0 10.4- 85.5- 2.0 3.3---- 0.8------------
1956-09-04 16.6 21.1 11.4- 91.5- 8.0 2.3---- 0.8------------
1956-09-03 18.4 24.4 8.9- 70.3- 0.0 3.3---- 0.0------------
1956-09-02 18.0 23.0 8.3- 70.8- 2.3 2.3---- 0.0------------
1956-09-01 11.8 20.2 3.6- 84.0- 0.3 0.7---- 0.0------------
1956-08-31 11.0 17.9 7.6- 84.3- 1.7 3.3---- 0.0------------
1956-08-30 14.1 19.2 11.2- 85.0- 7.0 6.0---- 0.2------------
1956-08-29 16.7 21.4 13.0- 76.5- 3.3 3.0---- 0.0------------
1956-08-28 17.1 22.1 13.1- 76.5- 5.0 5.0---- 0.0------------
1956-08-27 17.4 22.9 7.6- 68.3- 2.7 2.0---- 0.0------------
1956-08-26 14.1 19.4 8.0- 75.0- 1.3 9.0---- 0.7------------
1956-08-25 14.2 16.5 6.4- 80.3- 5.3 7.3---- 0.0------------
1956-08-24 11.5 16.8 9.5- 93.0- 5.0 4.3---- 11.5------------
1956-08-23 14.9 18.5 7.2- 90.8- 7.7 1.7---- 33.0------------
1956-08-22 12.9 20.7 5.6- 86.8- 2.3 1.3---- 0.0------------
1956-08-21 14.6 19.4 9.1- 88.5- 4.0 1.3---- 0.0------------
1956-08-20 14.4 20.4 10.9- 80.0- 2.3 4.3---- 0.0------------
1956-08-19 18.5 22.8 11.3- 75.8- 6.0 4.0---- 0.0------------
1956-08-18 15.3 21.3 12.1- 88.3- 3.0 2.3---- 0.2------------
1956-08-17 12.8 15.1 7.3- 98.5- 7.7 2.7---- 2.1------------
1956-08-16 12.3 14.6 7.6- 89.0- 7.0 3.3---- 2.6------------
1956-08-15 12.6 17.9 10.3- 81.8- 2.3 4.7---- 0.0------------
1956-08-14 15.7 22.0 6.6- 85.3- 7.7 2.7---- 3.4------------
1956-08-13 12.1 18.1 9.4- 90.0- 4.0 2.3---- 0.2------------
1956-08-12 12.8 16.3 8.1- 88.0- 8.0 1.7---- 15.1------------
212.9 ms

 

Źródłem pochodzenia danych jest Instytut Meteorologii i Gospodarki Wodnej – Państwowy Instytut Badawczy. Dane Instytutu Meteorologii i Gospodarki Wodnej – Państwowego Instytutu Badawczego zostały przetworzone.

Dane źródłowe można odnaleźć na stronie https://dane.imgw.pl